createdAt,value
2018-02-12T00:01:36.539Z,6.72
2018-02-12T00:04:04.023Z,6.32
2018-02-12T00:06:31.493Z,6.43
2018-02-12T00:08:58.974Z,9.40
2018-02-12T00:11:26.452Z,7.55
2018-02-12T00:13:53.958Z,8.57
2018-02-12T00:16:21.440Z,7.35
2018-02-12T00:18:49.027Z,6.43
2018-02-12T00:21:16.908Z,9.40
2018-02-12T00:23:44.800Z,10.43
2018-02-12T00:26:12.339Z,7.40
2018-02-12T00:28:39.831Z,12.13
2018-02-12T00:31:07.703Z,10.05
2018-02-12T00:33:35.588Z,9.40
2018-02-12T00:36:03.475Z,10.90
2018-02-12T00:38:31.015Z,8.10
2018-02-12T00:40:58.517Z,14.70
2018-02-12T00:43:26.058Z,11.25
2018-02-12T00:45:53.640Z,10.95
2018-02-12T00:48:21.124Z,13.30
2018-02-12T00:50:49.020Z,9.63
2018-02-12T00:53:16.504Z,12.63
2018-02-12T00:55:43.994Z,11.70
2018-02-12T00:58:11.495Z,10.88
2018-02-12T01:00:38.986Z,12.00
2018-02-12T01:03:06.948Z,14.23
2018-02-12T01:05:34.443Z,11.93
2018-02-12T01:08:02.319Z,15.02
2018-02-12T01:10:30.316Z,18.02
2018-02-12T01:12:57.856Z,16.83
2018-02-12T01:15:25.357Z,16.65
2018-02-12T01:17:52.845Z,15.85
2018-02-12T01:20:20.344Z,15.32
2018-02-12T01:22:47.827Z,16.25
2018-02-12T01:25:15.407Z,15.80
2018-02-12T01:27:42.996Z,16.40
2018-02-12T01:30:10.997Z,21.20
2018-02-12T01:32:38.470Z,19.60
2018-02-12T01:35:05.968Z,20.70
2018-02-12T01:37:33.442Z,20.20
2018-02-12T01:40:00.940Z,23.77
2018-02-12T01:42:28.419Z,26.60
2018-02-12T01:44:55.915Z,24.73
2018-02-12T01:47:23.394Z,25.95
2018-02-12T01:52:57.072Z,22.83
2018-02-12T01:55:24.571Z,26.50
2018-02-12T01:57:52.051Z,25.70
2018-02-12T02:00:19.696Z,24.60
2018-02-12T02:02:47.183Z,28.33
2018-02-12T02:05:14.684Z,25.80
2018-02-12T02:07:42.563Z,27.13
2018-02-12T02:10:10.460Z,25.73
2018-02-12T02:12:37.934Z,30.80
2018-02-12T02:15:05.435Z,27.62
2018-02-12T02:17:32.920Z,32.00
2018-02-12T02:20:00.412Z,29.05
2018-02-12T02:22:28.391Z,38.67
2018-02-12T02:24:56.271Z,28.75
2018-02-12T02:27:23.780Z,29.63
2018-02-12T02:29:51.311Z,27.45
2018-02-12T02:32:18.808Z,27.30
2018-02-12T02:34:46.352Z,34.25
2018-02-12T02:37:13.849Z,33.80
2018-02-12T02:39:41.328Z,31.25
2018-02-12T02:42:08.832Z,28.75
2018-02-12T02:44:36.312Z,28.60
2018-02-12T02:47:03.807Z,27.87
2018-02-12T02:49:31.289Z,27.35
2018-02-12T02:51:59.255Z,30.00
2018-02-12T02:54:26.983Z,31.17
2018-02-12T02:56:54.484Z,25.10
2018-02-12T02:59:21.962Z,22.67
2018-02-12T03:01:49.460Z,25.37
2018-02-12T03:04:17.340Z,27.25
2018-02-12T03:06:45.302Z,26.27
2018-02-12T03:09:12.783Z,29.23
2018-02-12T03:11:40.760Z,24.55
2018-02-12T03:14:08.744Z,25.77
2018-02-12T03:16:36.640Z,24.50
2018-02-12T03:19:04.521Z,27.75
2018-02-12T03:21:32.023Z,24.83
2018-02-12T03:23:59.494Z,26.42
2018-02-12T03:26:26.996Z,25.62
2018-02-12T03:28:54.583Z,24.80
2018-02-12T03:31:22.088Z,27.98
2018-02-12T03:33:49.558Z,29.15
2018-02-12T03:36:17.063Z,25.90
2018-02-12T03:38:44.547Z,28.90
2018-02-12T03:41:12.048Z,25.58
2018-02-12T03:43:39.924Z,28.33
2018-02-12T03:46:08.792Z,23.98
2018-02-12T03:48:36.271Z,25.90
2018-02-12T03:51:03.751Z,27.08
2018-02-12T03:53:31.252Z,28.35
2018-02-12T03:55:58.740Z,26.30
2018-02-12T03:58:26.235Z,29.20
2018-02-12T04:00:53.716Z,25.58
2018-02-12T04:03:21.207Z,26.27
2018-02-12T04:05:48.783Z,25.73
2018-02-12T04:08:16.292Z,26.52
2018-02-12T04:10:43.767Z,24.23
2018-02-12T04:13:11.291Z,28.48
2018-02-12T04:15:38.785Z,25.83
2018-02-12T04:18:06.748Z,30.85
2018-02-12T04:20:34.319Z,25.85
2018-02-12T04:23:01.882Z,27.30
2018-02-12T04:25:29.464Z,22.92
2018-02-12T04:27:57.084Z,25.80
2018-02-12T04:30:24.565Z,27.87
2018-02-12T04:32:52.059Z,21.17
2018-02-12T04:35:19.534Z,25.17
2018-02-12T04:37:47.030Z,26.50
2018-02-12T04:40:14.911Z,26.50
2018-02-12T04:42:42.804Z,21.67
2018-02-12T04:45:10.291Z,21.27
2018-02-12T04:47:37.820Z,26.75
2018-02-12T04:50:05.803Z,23.65
2018-02-12T04:52:33.299Z,19.25
2018-02-12T04:55:00.839Z,23.00
2018-02-12T04:57:28.340Z,21.52
2018-02-12T04:59:55.820Z,22.80
2018-02-12T05:02:23.311Z,20.55
2018-02-12T05:04:50.821Z,18.20
2018-02-12T05:07:18.426Z,19.87
2018-02-12T05:09:45.912Z,25.52
2018-02-12T05:12:13.435Z,19.15
2018-02-12T05:14:41.013Z,20.45
2018-02-12T05:17:08.900Z,22.08
2018-02-12T05:19:36.875Z,18.95
2018-02-12T05:22:04.360Z,20.90
2018-02-12T05:24:32.250Z,20.65
2018-02-12T05:26:59.731Z,25.00
2018-02-12T05:29:27.227Z,18.55
2018-02-12T05:31:54.707Z,18.60
2018-02-12T05:34:22.198Z,24.95
2018-02-12T05:36:49.674Z,25.15
2018-02-12T05:39:17.176Z,17.75
2018-02-12T05:41:44.719Z,23.62
2018-02-12T05:44:12.620Z,19.35
2018-02-12T05:46:40.112Z,17.23
2018-02-12T05:49:07.615Z,22.83
2018-02-12T05:51:35.104Z,18.27
2018-02-12T05:54:02.604Z,20.12
2018-02-12T05:56:30.096Z,17.45
2018-02-12T05:58:57.599Z,18.37
2018-02-12T06:01:25.080Z,19.50
2018-02-12T06:03:52.580Z,17.23
2018-02-12T06:06:20.450Z,22.23
2018-02-12T06:08:48.414Z,19.73
2018-02-12T06:11:15.901Z,19.25
2018-02-12T06:13:43.876Z,28.90
2018-02-12T06:16:11.756Z,24.95
2018-02-12T06:18:39.730Z,26.23
2018-02-12T06:21:07.211Z,21.83
2018-02-12T06:23:35.183Z,21.85
2018-02-12T06:26:02.658Z,20.67
2018-02-12T06:28:30.259Z,21.62
2018-02-12T06:30:57.742Z,21.42
2018-02-12T06:33:25.239Z,20.20
2018-02-12T06:35:52.719Z,17.30
2018-02-12T06:38:20.215Z,21.27
2018-02-12T06:40:47.707Z,26.75
2018-02-12T06:43:15.264Z,24.10
2018-02-12T06:45:43.161Z,20.50
2018-02-12T06:48:10.640Z,19.80
2018-02-12T06:50:38.130Z,23.58
2018-02-12T06:53:05.612Z,23.25
2018-02-12T06:55:33.102Z,17.92
2018-02-12T06:58:00.588Z,21.83
2018-02-12T07:00:28.159Z,19.62
2018-02-12T07:02:55.642Z,19.42
2018-02-12T07:05:23.533Z,25.88
2018-02-12T07:07:51.015Z,22.52
2018-02-12T07:10:18.556Z,28.87
2018-02-12T07:12:46.435Z,20.00
2018-02-12T07:15:14.332Z,18.30
2018-02-12T07:17:42.216Z,27.00
2018-02-12T07:20:09.720Z,18.20
2018-02-12T07:22:37.200Z,20.40
2018-02-12T07:25:04.700Z,19.25
2018-02-12T07:27:32.177Z,21.25
2018-02-12T07:30:00.096Z,21.55
2018-02-12T07:32:27.579Z,19.80
2018-02-12T07:34:55.085Z,18.35
2018-02-12T07:37:22.590Z,25.95
2018-02-12T07:39:50.088Z,16.60
2018-02-12T07:42:17.572Z,20.60
2018-02-12T07:44:45.072Z,15.68
2018-02-12T07:47:12.556Z,18.83
2018-02-12T07:49:40.456Z,15.75
2018-02-12T07:52:07.939Z,17.65
2018-02-12T07:54:35.427Z,17.73
2018-02-12T07:57:02.920Z,17.70
2018-02-12T07:59:30.417Z,17.05
2018-02-12T08:01:58.404Z,19.42
2018-02-12T08:04:26.291Z,16.50
2018-02-12T08:06:54.195Z,20.20
2018-02-12T08:09:21.670Z,18.73
2018-02-12T08:11:49.167Z,18.30
2018-02-12T08:14:16.652Z,19.95
2018-02-12T08:16:44.160Z,18.30
2018-02-12T08:19:11.641Z,18.05
2018-02-12T08:21:39.140Z,21.23
2018-02-12T08:24:06.627Z,17.80
2018-02-12T08:26:34.114Z,16.62
2018-02-12T08:29:01.599Z,20.95
2018-02-12T08:31:29.491Z,15.70
2018-02-12T08:33:57.036Z,14.10
2018-02-12T08:36:24.527Z,16.02
2018-02-12T08:38:52.104Z,16.35
2018-02-12T08:41:19.604Z,13.43
2018-02-12T08:43:47.080Z,15.40
2018-02-12T08:46:14.581Z,15.20
2018-02-12T08:48:42.161Z,15.43
2018-02-12T08:51:09.650Z,13.38
2018-02-12T08:53:37.528Z,15.75
2018-02-12T08:56:05.419Z,20.98
2018-02-12T08:58:32.968Z,14.32
2018-02-12T09:01:00.865Z,17.02
2018-02-12T09:03:28.731Z,11.80
2018-02-12T09:05:56.624Z,17.27
2018-02-12T09:08:24.490Z,15.00
2018-02-12T09:10:52.427Z,14.07
2018-02-12T09:13:19.927Z,11.75
2018-02-12T09:15:47.429Z,11.50
2018-02-12T09:18:14.909Z,13.32
2018-02-12T09:20:42.413Z,14.07
2018-02-12T09:23:09.896Z,11.48
2018-02-12T09:25:37.386Z,16.50
2018-02-12T09:28:04.960Z,11.63
2018-02-12T09:30:32.937Z,12.82
2018-02-12T09:33:00.420Z,9.30
2018-02-12T09:35:28.392Z,12.73
2018-02-12T09:37:55.896Z,13.55
2018-02-12T09:40:23.430Z,13.75
2018-02-12T09:42:50.929Z,15.77
2018-02-12T09:45:18.408Z,12.10
2018-02-12T09:47:45.903Z,13.35
2018-02-12T09:50:13.375Z,10.65
2018-02-12T09:52:40.908Z,12.02
2018-02-12T09:55:08.783Z,12.60
2018-02-12T09:57:36.677Z,13.50
2018-02-12T10:00:04.160Z,21.62
2018-02-12T10:02:31.659Z,22.50
2018-02-12T10:04:59.139Z,19.77
2018-02-12T10:07:26.635Z,10.70
2018-02-12T10:09:54.634Z,23.90
2018-02-12T10:12:22.180Z,14.23
2018-02-12T10:14:49.663Z,11.52
2018-02-12T10:17:17.635Z,15.93
2018-02-12T10:19:45.511Z,11.27
2018-02-12T10:22:13.080Z,13.02
2018-02-12T10:24:40.661Z,13.00
2018-02-12T10:27:08.556Z,11.70
2018-02-12T10:29:36.056Z,38.15
2018-02-12T10:32:03.556Z,15.07
2018-02-12T10:34:31.028Z,17.80
2018-02-12T10:36:58.518Z,16.40
2018-02-12T10:39:26.491Z,10.35
2018-02-12T10:41:53.978Z,9.20
2018-02-12T10:44:21.850Z,8.23
2018-02-12T10:46:49.434Z,8.68
2018-02-12T10:49:17.332Z,11.70
2018-02-12T10:51:44.862Z,8.85
2018-02-12T10:54:12.345Z,11.80
2018-02-12T10:56:40.268Z,10.95
2018-02-12T10:59:07.725Z,9.10
2018-02-12T11:01:35.219Z,11.00
2018-02-12T11:04:02.696Z,9.77
2018-02-12T11:06:30.258Z,10.35
2018-02-12T11:08:57.751Z,16.25
2018-02-12T11:11:25.388Z,16.33
2018-02-12T11:13:52.883Z,11.35
2018-02-12T11:16:20.411Z,6.57
2018-02-12T11:18:48.299Z,6.75
2018-02-12T11:21:15.868Z,11.43
2018-02-12T11:23:43.411Z,13.45
2018-02-12T11:26:10.895Z,10.60
2018-02-12T11:28:38.461Z,8.85
2018-02-12T11:31:06.439Z,13.50
2018-02-12T11:33:34.468Z,12.73
2018-02-12T11:36:01.958Z,9.10
2018-02-12T11:38:29.447Z,9.85
2018-02-12T11:40:56.924Z,11.98
2018-02-12T11:43:24.508Z,8.88
2018-02-12T11:45:52.374Z,7.95
2018-02-12T11:48:19.898Z,10.35
2018-02-12T11:50:47.412Z,10.02
2018-02-12T11:53:14.904Z,8.95
2018-02-12T11:55:42.433Z,9.73
2018-02-12T11:58:09.919Z,8.18
2018-02-12T12:00:37.403Z,23.90
2018-02-12T12:03:04.909Z,12.43
2018-02-12T12:05:32.389Z,10.75
2018-02-12T12:07:59.932Z,12.00
2018-02-12T12:10:27.840Z,15.50
2018-02-12T12:12:55.332Z,11.88
2018-02-12T12:15:22.806Z,11.63
2018-02-12T12:17:50.294Z,9.93
2018-02-12T12:20:17.772Z,7.70
2018-02-12T12:22:45.273Z,8.10
2018-02-12T12:25:13.144Z,7.25
2018-02-12T12:27:41.027Z,10.60
2018-02-12T12:30:08.905Z,6.43
2018-02-12T12:32:36.800Z,9.75
2018-02-12T12:35:04.294Z,6.93
2018-02-12T12:37:31.773Z,7.85
2018-02-12T12:39:59.258Z,6.35
2018-02-12T12:42:26.778Z,11.15
2018-02-12T12:44:54.340Z,11.15
2018-02-12T12:47:22.276Z,11.82
2018-02-12T12:49:49.767Z,9.68
2018-02-12T12:52:17.248Z,6.85
2018-02-12T12:54:44.747Z,10.30
2018-02-12T12:57:12.328Z,8.40
2018-02-12T12:59:39.863Z,10.35
2018-02-12T13:02:07.440Z,7.30
2018-02-12T13:04:35.323Z,9.63
2018-02-12T13:07:03.240Z,7.37
2018-02-12T13:09:30.739Z,9.82
2018-02-12T13:11:58.231Z,6.85
2018-02-12T13:14:25.719Z,6.37
2018-02-12T13:16:53.670Z,16.25
2018-02-12T13:19:21.181Z,7.12
2018-02-12T13:21:48.660Z,6.65
2018-02-12T13:24:16.142Z,6.35
2018-02-12T13:26:43.912Z,10.23
2018-02-12T13:29:11.399Z,5.30
2018-02-12T13:31:38.992Z,6.75
2018-02-12T13:34:06.495Z,7.90
2018-02-12T13:36:34.412Z,8.48
2018-02-12T13:39:01.904Z,8.23
2018-02-12T13:41:29.456Z,5.68
2018-02-12T13:43:56.957Z,8.80
2018-02-12T13:46:24.595Z,9.00
2018-02-12T13:48:52.128Z,4.80
2018-02-12T13:51:19.611Z,10.23
2018-02-12T13:53:47.495Z,7.68
2018-02-12T13:56:15.458Z,8.00
2018-02-12T13:58:42.926Z,8.75
2018-02-12T14:01:10.429Z,7.20
2018-02-12T14:03:37.912Z,9.32
2018-02-12T14:06:05.404Z,6.87
2018-02-12T14:08:32.880Z,5.43
2018-02-12T14:11:00.375Z,11.50
2018-02-12T14:13:27.852Z,5.70
2018-02-12T14:15:55.334Z,8.45
2018-02-12T14:18:23.211Z,10.18
2018-02-12T14:20:51.115Z,8.85
2018-02-12T14:23:18.592Z,7.93
2018-02-12T14:25:46.088Z,6.55
2018-02-12T14:28:13.564Z,7.30
2018-02-12T14:30:41.069Z,24.95
2018-02-12T14:33:08.946Z,7.87
2018-02-12T14:35:36.844Z,12.30
2018-02-12T14:38:04.720Z,7.78
2018-02-12T14:40:32.604Z,8.50
2018-02-12T14:43:00.075Z,8.75
2018-02-12T14:45:27.563Z,10.40
2018-02-12T14:47:55.040Z,6.47
2018-02-12T14:50:22.536Z,9.57
2018-02-12T14:52:50.003Z,8.30
2018-02-12T14:55:17.496Z,7.75
2018-02-12T14:57:44.975Z,7.68
2018-02-12T15:00:12.868Z,9.52
2018-02-12T15:02:40.753Z,11.45
2018-02-12T15:05:08.716Z,6.68
2018-02-12T15:07:36.190Z,14.20
2018-02-12T15:10:04.092Z,10.85
2018-02-12T15:12:31.571Z,7.68
2018-02-12T15:14:59.073Z,7.95
2018-02-12T15:17:26.550Z,6.50
2018-02-12T15:19:54.038Z,6.55
2018-02-12T15:22:21.520Z,4.37
2018-02-12T15:24:49.425Z,5.72
2018-02-12T15:27:16.904Z,6.40
2018-02-12T15:29:44.388Z,10.70
2018-02-12T15:32:11.879Z,7.68
2018-02-12T15:34:39.368Z,9.80
2018-02-12T15:37:06.860Z,4.57
2018-02-12T15:39:34.828Z,7.10
2018-02-12T15:42:02.314Z,7.72
2018-02-12T15:44:30.183Z,7.20
2018-02-12T15:46:58.072Z,8.50
2018-02-12T15:49:26.040Z,5.72
2018-02-12T15:51:53.535Z,5.45
2018-02-12T15:54:21.080Z,7.35
2018-02-12T15:56:48.571Z,7.05
2018-02-12T15:59:16.444Z,8.25
2018-02-12T16:01:44.340Z,9.75
2018-02-12T16:04:11.814Z,10.00
2018-02-12T16:06:39.316Z,15.07
2018-02-12T16:09:06.800Z,15.85
2018-02-12T16:11:34.299Z,11.45
2018-02-12T16:14:02.176Z,12.90
2018-02-12T16:16:30.068Z,14.75
2018-02-12T16:18:58.031Z,12.77
2018-02-12T16:21:25.528Z,12.73
2018-02-12T16:23:53.085Z,13.85
2018-02-12T16:26:21.060Z,13.00
2018-02-12T16:28:48.552Z,11.27
2018-02-12T16:31:16.537Z,10.20
2018-02-12T16:33:44.016Z,16.98
2018-02-12T16:36:11.553Z,16.98
2018-02-12T16:38:39.035Z,15.40
2018-02-12T16:41:06.918Z,18.95
2018-02-12T16:43:34.884Z,13.10
2018-02-12T16:46:02.420Z,8.05
2018-02-12T16:48:29.905Z,12.65
2018-02-12T16:50:57.387Z,7.78
2018-02-12T16:53:24.968Z,10.13
2018-02-12T16:55:52.465Z,16.37
2018-02-12T16:58:19.963Z,14.25
2018-02-12T17:00:47.434Z,14.27
2018-02-12T17:03:14.922Z,15.15
2018-02-12T17:05:42.404Z,16.73
2018-02-12T17:08:09.900Z,13.68
2018-02-12T17:10:37.776Z,13.02
2018-02-12T17:13:05.673Z,14.48
2018-02-12T17:15:33.151Z,10.93
2018-02-12T17:18:00.639Z,14.23
2018-02-12T17:20:28.120Z,14.43
2018-02-12T17:22:55.615Z,11.95
2018-02-12T17:25:23.101Z,10.85
2018-02-12T17:27:50.600Z,14.32
2018-02-12T17:30:18.080Z,17.55
2018-02-12T17:32:45.587Z,12.25
2018-02-12T17:35:13.071Z,15.50
2018-02-12T17:37:40.565Z,15.40
2018-02-12T17:40:08.573Z,16.15
2018-02-12T17:42:36.100Z,15.00
2018-02-12T17:45:03.584Z,19.45
2018-02-12T17:47:31.146Z,21.60
2018-02-12T17:49:58.619Z,22.77
2018-02-12T17:52:26.140Z,15.30
2018-02-12T17:54:53.668Z,16.98
2018-02-12T17:57:21.648Z,12.48
2018-02-12T17:59:49.550Z,19.65
2018-02-12T18:02:17.049Z,16.33
2018-02-12T18:04:44.538Z,17.83
2018-02-12T18:07:12.036Z,15.25
2018-02-12T18:09:39.519Z,14.35
2018-02-12T18:12:07.423Z,28.08
2018-02-12T18:14:34.908Z,14.77
2018-02-12T18:17:02.408Z,16.15
2018-02-12T18:19:29.894Z,14.90
2018-02-12T18:21:57.396Z,15.18
2018-02-12T18:24:24.999Z,17.37
2018-02-12T18:26:52.483Z,22.42
2018-02-12T18:29:19.983Z,17.20
2018-02-12T18:31:47.468Z,17.23
2018-02-12T18:34:15.440Z,10.77
2018-02-12T18:36:43.319Z,10.77
2018-02-12T18:39:10.817Z,13.80
2018-02-12T18:41:38.290Z,13.32
2018-02-12T18:44:05.791Z,12.93
2018-02-12T18:46:33.275Z,16.75
2018-02-12T18:49:00.868Z,15.07
2018-02-12T18:51:28.352Z,14.77
2018-02-12T18:53:56.234Z,12.20
2018-02-12T18:56:24.107Z,20.52
2018-02-12T18:58:52.079Z,22.13
2018-02-12T19:01:19.610Z,19.55
2018-02-12T19:03:47.108Z,15.57
2018-02-12T19:06:14.583Z,16.15
2018-02-12T19:08:42.079Z,15.15
2018-02-12T19:11:09.591Z,16.45
2018-02-12T19:13:37.100Z,12.13
2018-02-12T19:16:04.707Z,14.20
2018-02-12T19:18:32.212Z,20.50
2018-02-12T19:20:59.688Z,15.95
2018-02-12T19:23:27.183Z,16.50
2018-02-12T19:25:54.764Z,23.30
2018-02-12T19:28:22.263Z,20.05
2018-02-12T19:30:49.758Z,24.15
2018-02-12T19:33:17.260Z,16.37
2018-02-12T19:35:44.739Z,17.12
2018-02-12T19:38:12.230Z,14.65
2018-02-12T19:40:40.109Z,16.12
2018-02-12T19:43:08.000Z,16.30
2018-02-12T19:45:35.484Z,16.45
2018-02-12T19:48:02.963Z,15.80
2018-02-12T19:50:30.464Z,19.20
2018-02-12T19:52:57.947Z,20.42
2018-02-12T19:55:25.516Z,24.10
2018-02-12T19:57:53.003Z,16.62
2018-02-12T20:00:20.992Z,11.02
2018-02-12T20:02:48.859Z,8.63
2018-02-12T20:05:16.389Z,18.23
2018-02-12T20:07:43.868Z,18.35
2018-02-12T20:10:11.399Z,13.90
2018-02-12T20:12:38.946Z,11.77
2018-02-12T20:15:06.444Z,10.70
2018-02-12T20:17:33.994Z,17.25
2018-02-12T20:20:01.986Z,19.37
2018-02-12T20:22:29.858Z,18.05
2018-02-12T20:24:57.767Z,21.08
2018-02-12T20:27:25.252Z,26.55
2018-02-12T20:29:52.785Z,20.88
2018-02-12T20:32:20.752Z,25.70
2018-02-12T20:34:48.318Z,20.12
2018-02-12T20:37:15.801Z,15.98
2018-02-12T20:39:43.712Z,19.40
2018-02-12T20:42:11.191Z,22.23
2018-02-12T20:44:38.699Z,23.27
2018-02-12T20:47:06.179Z,20.05
2018-02-12T20:49:33.690Z,20.05
2018-02-12T20:52:01.176Z,17.48
2018-02-12T20:54:28.672Z,15.70
2018-02-12T20:56:56.152Z,12.95
2018-02-12T20:59:23.644Z,12.13
2018-02-12T21:01:51.540Z,17.40
2018-02-12T21:04:19.438Z,17.40
2018-02-12T21:06:46.923Z,17.00
2018-02-12T21:09:14.475Z,16.50
2018-02-12T21:11:42.004Z,15.55
2018-02-12T21:14:09.509Z,19.10
2018-02-12T21:16:37.060Z,22.15
2018-02-12T21:19:04.548Z,20.60
2018-02-12T21:21:32.048Z,23.95
2018-02-12T21:23:59.535Z,17.35
2018-02-12T21:26:27.032Z,22.23
2018-02-12T21:28:54.515Z,23.48
2018-02-12T21:31:22.408Z,19.10
2018-02-12T21:33:50.282Z,21.70
2018-02-12T21:36:18.188Z,19.25
2018-02-12T21:38:45.681Z,20.23
2018-02-12T21:41:13.184Z,23.77
2018-02-12T21:43:40.663Z,20.65
2018-02-12T21:46:08.634Z,23.08
2018-02-12T21:48:36.206Z,26.27
2018-02-12T21:51:03.712Z,21.33
2018-02-12T21:53:31.252Z,22.40
2018-02-12T21:55:58.760Z,19.90
2018-02-12T21:58:26.244Z,15.98
2018-02-12T22:00:53.739Z,20.08
2018-02-12T22:03:21.228Z,19.20
2018-02-12T22:05:48.742Z,22.10
2018-02-12T22:08:16.232Z,17.58
2018-02-12T22:10:43.737Z,19.52
2018-02-12T22:13:11.315Z,19.95
2018-02-12T22:15:38.835Z,22.27
2018-02-12T22:18:06.331Z,24.17
2018-02-12T22:20:33.912Z,20.83
2018-02-12T22:23:01.395Z,18.35
2018-02-12T22:25:28.879Z,15.07
2018-02-12T22:27:56.447Z,17.70
2018-02-12T22:30:23.931Z,20.50
2018-02-12T22:32:52.029Z,16.62
2018-02-12T22:35:19.517Z,21.40
2018-02-12T22:37:47.020Z,13.68
2018-02-12T22:40:14.508Z,12.18
2018-02-12T22:42:42.084Z,15.57
2018-02-12T22:45:09.576Z,17.90
2018-02-12T22:47:37.471Z,15.88
2018-02-12T22:50:04.958Z,14.93
2018-02-12T22:52:32.451Z,15.40
2018-02-12T22:54:59.936Z,20.58
2018-02-12T22:57:27.426Z,18.77
2018-02-12T22:59:55.299Z,11.25
2018-02-12T23:02:22.805Z,17.52
2018-02-12T23:04:50.289Z,13.32
2018-02-12T23:07:17.788Z,13.57
2018-02-12T23:09:45.276Z,15.95
2018-02-12T23:12:12.783Z,12.73
2018-02-12T23:14:40.261Z,12.30
2018-02-12T23:17:20.684Z,12.57
2018-02-12T23:19:48.159Z,8.55
2018-02-12T23:22:15.654Z,9.68
2018-02-12T23:24:43.536Z,13.98
2018-02-12T23:27:11.422Z,13.82
2018-02-12T23:29:38.902Z,14.13
2018-02-12T23:32:06.444Z,15.25
2018-02-12T23:34:34.324Z,21.23
2018-02-12T23:37:02.308Z,14.05
2018-02-12T23:39:29.770Z,18.98
2018-02-12T23:41:57.748Z,28.10
2018-02-12T23:44:25.635Z,17.83
2018-02-12T23:46:53.536Z,13.30
2018-02-12T23:49:21.020Z,19.30
2018-02-12T23:51:48.513Z,20.58
2018-02-12T23:54:25.803Z,18.30
2018-02-12T23:56:53.304Z,19.00
2018-02-12T23:59:20.796Z,24.08
